createdAt,value
2022-09-02T12:35:52.967Z,99.90
2022-09-02T12:39:58.607Z,62.30
2022-09-02T12:44:19.658Z,62.70
2022-09-02T12:48:59.447Z,62.90
2022-09-02T12:53:07.493Z,64.50
2022-09-02T12:57:10.497Z,65.70
2022-09-02T13:01:15.379Z,66.10
2022-09-02T13:05:38.721Z,65.70
2022-09-02T13:10:18.249Z,65.90
2022-09-02T13:14:23.241Z,66.20
2022-09-02T13:18:53.031Z,66.20
2022-09-02T13:24:41.149Z,66.00
2022-09-02T13:28:12.485Z,65.60
2022-09-02T13:32:23.277Z,64.60
2022-09-02T13:36:37.298Z,64.50
2022-09-02T13:40:40.494Z,64.20
2022-09-02T13:44:42.476Z,64.20
2022-09-02T13:48:44.739Z,64.30
2022-09-02T13:57:22.221Z,63.90
2022-09-02T14:01:33.090Z,63.60
2022-09-02T14:05:37.791Z,63.80
2022-09-02T14:09:42.054Z,63.60
2022-09-02T14:13:48.708Z,64.50
2022-09-02T14:18:09.335Z,63.20
2022-09-02T14:22:43.784Z,61.50
2022-09-02T14:26:52.135Z,60.70
2022-09-02T14:30:59.916Z,63.30
2022-09-02T14:35:28.098Z,63.60
2022-09-02T14:39:30.096Z,60.80
2022-09-02T14:43:50.144Z,63.30
2022-09-02T14:47:52.467Z,63.10
2022-09-02T14:51:57.121Z,62.60
2022-09-02T14:55:59.574Z,62.40
2022-09-02T15:00:11.129Z,62.50
2022-09-02T15:04:14.816Z,62.40
2022-09-02T15:08:17.065Z,62.80
2022-09-02T15:12:26.144Z,63.30
2022-09-02T15:16:29.522Z,63.20
2022-09-02T15:20:32.584Z,63.50
2022-09-02T15:24:34.726Z,64.00
2022-09-02T15:28:38.529Z,64.40
2022-09-02T15:32:41.008Z,64.50
2022-09-02T15:36:42.963Z,64.70
2022-09-02T15:40:45.451Z,64.80
2022-09-02T15:44:47.932Z,65.20
2022-09-02T15:48:56.734Z,65.10
2022-09-02T15:53:01.017Z,65.20
2022-09-02T15:57:03.366Z,65.20
2022-09-02T16:01:05.530Z,65.40
2022-09-02T16:05:08.287Z,65.60
2022-09-02T16:09:12.950Z,65.60
2022-09-02T16:13:14.886Z,65.70
2022-09-02T16:17:16.887Z,66.00
2022-09-02T16:21:20.507Z,66.50
2022-09-02T16:25:23.341Z,66.40
2022-09-02T16:29:28.203Z,66.40
2022-09-02T16:33:30.483Z,67.00
2022-09-02T16:37:32.402Z,67.00
2022-09-02T16:41:38.548Z,67.10
2022-09-02T16:45:40.537Z,67.90
2022-09-02T16:49:42.654Z,67.30
2022-09-02T16:53:44.880Z,67.50
2022-09-02T16:57:46.863Z,67.60
2022-09-02T17:01:48.834Z,68.10
2022-09-02T17:05:50.924Z,69.60
2022-09-02T17:09:52.791Z,68.50
2022-09-02T17:14:00.558Z,69.70
2022-09-02T17:18:02.473Z,69.00
2022-09-02T17:22:04.382Z,68.80
2022-09-02T17:26:06.393Z,70.70
2022-09-02T17:30:10.963Z,68.80
2022-09-02T17:34:14.700Z,69.60
2022-09-02T17:38:16.643Z,69.40
2022-09-02T17:42:18.628Z,69.60
2022-09-02T17:46:21.094Z,72.10
2022-09-02T17:50:23.143Z,70.00
2022-09-02T17:54:25.944Z,70.40
2022-09-02T17:58:39.198Z,72.40
2022-09-02T18:03:02.669Z,71.10
2022-09-02T18:07:46.462Z,71.50
2022-09-02T18:11:51.793Z,72.80
2022-09-02T18:16:23.358Z,72.00
2022-09-02T18:20:36.139Z,72.80
2022-09-02T18:24:53.266Z,72.90
2022-09-02T18:29:42.771Z,73.50
2022-09-02T18:33:45.172Z,73.30
2022-09-02T18:38:07.266Z,74.20
2022-09-02T18:42:46.916Z,76.90
2022-09-02T18:46:52.751Z,75.00
2022-09-02T18:51:00.319Z,75.00
2022-09-02T18:55:13.997Z,75.60
2022-09-02T18:59:25.999Z,75.40
2022-09-02T19:03:34.875Z,75.20
2022-09-02T19:07:55.415Z,76.50
2022-09-02T19:11:57.382Z,76.20
2022-09-02T19:16:04.329Z,75.90
2022-09-02T19:20:08.200Z,76.70
2022-09-02T19:24:24.737Z,77.00
2022-09-02T19:28:27.732Z,76.60
2022-09-02T19:32:33.350Z,77.20
2022-09-02T19:36:39.241Z,76.70
2022-09-02T19:40:41.186Z,78.00
2022-09-02T19:44:43.042Z,78.20
2022-09-02T19:48:44.927Z,79.10
2022-09-02T19:52:49.387Z,79.20
2022-09-02T19:56:51.756Z,82.40
2022-09-02T20:00:54.257Z,79.90
2022-09-02T20:04:56.307Z,79.50
2022-09-02T20:08:58.357Z,81.10
2022-09-02T20:13:00.332Z,88.20
2022-09-02T20:17:03.324Z,80.80
2022-09-02T20:21:06.473Z,90.00
2022-09-02T20:25:09.614Z,81.10
2022-09-02T20:29:30.153Z,81.30
2022-09-02T20:33:44.029Z,81.30
2022-09-02T20:38:03.259Z,81.30
2022-09-02T20:42:23.025Z,85.20
2022-09-02T20:46:31.064Z,81.40
2022-09-02T20:50:54.873Z,82.80
2022-09-02T20:55:19.837Z,83.50
2022-09-02T20:59:55.082Z,83.30
2022-09-02T21:04:24.641Z,83.10
2022-09-02T21:08:38.530Z,82.70
2022-09-02T21:12:43.334Z,82.70
2022-09-02T21:16:57.139Z,82.40
2022-09-02T21:21:10.322Z,82.80
2022-09-02T21:25:16.537Z,82.80
2022-09-02T21:29:38.382Z,82.10
2022-09-02T21:33:43.844Z,82.20
2022-09-02T21:37:46.113Z,82.70
2022-09-02T21:42:32.693Z,82.80
2022-09-02T21:47:01.555Z,83.00
2022-09-02T21:51:19.429Z,82.80
2022-09-02T21:55:50.226Z,83.70
2022-09-02T22:00:03.693Z,83.80
2022-09-02T22:04:18.411Z,83.00
2022-09-02T22:08:32.230Z,84.40
2022-09-02T22:12:39.905Z,84.90
2022-09-02T22:17:08.216Z,84.20
2022-09-02T22:21:29.057Z,84.60
2022-09-02T22:25:33.830Z,84.90
2022-09-02T22:30:13.621Z,84.50
2022-09-02T22:34:18.656Z,85.20
2022-09-02T22:38:27.789Z,86.60
2022-09-02T22:42:40.846Z,86.30
2022-09-02T22:47:08.361Z,86.60
2022-09-02T22:51:35.653Z,86.30
2022-09-02T22:55:48.600Z,85.50
2022-09-02T23:00:01.856Z,85.40
2022-09-02T23:04:16.161Z,85.50
2022-09-02T23:08:22.926Z,86.50
2022-09-02T23:12:30.083Z,86.10
2022-09-02T23:16:53.356Z,86.60
2022-09-02T23:21:16.976Z,87.40
2022-09-02T23:25:37.763Z,86.80
2022-09-02T23:29:43.105Z,87.10
2022-09-02T23:34:07.107Z,86.70
2022-09-02T23:38:38.561Z,87.70
2022-09-02T23:42:40.709Z,87.50
2022-09-02T23:46:48.447Z,87.30
2022-09-02T23:51:15.096Z,87.20
2022-09-02T23:55:23.267Z,88.50
2022-09-02T23:59:54.010Z,86.80
